Nearby METAR Reports

 

KIOB - Mount Sterling, Kentucky, USA
Distance from station: NNW 14mi, 23km
Updated: Fri, 22-Jan-2021 1:55am EST
Clear
Clear
 Wind from WSW
Wind: WSW 8 mph , 13 km/h
Temperature: 36°F , 2°C
Wind Chill: 30°F , -1°C
Dew Point: 34°F , 1°C
Humidity: 93%
Barometer: 29.90 inHg , 1012.5 hPa
Clouds: Clear
Visibility: 10 miles , 16 km
2021/01/22 06:55 KIOB 220655Z AUTO 25007KT 10SM CLR 02/01 A2990 RMK AO2
KSYM - Morehead, Kentucky, USA
Distance from station: NE 31mi, 49km
Updated: Fri, 22-Jan-2021 1:55am EST
Clear
Clear
 Wind from WSW
Wind: WSW 8 mph , 13 km/h, Gust: 15 mph , 24 km/h
Temperature: 37°F , 3°C
Wind Chill: 31°F , -1°C
Dew Point: 32°F , 0°C
Humidity: 81%
Barometer: 29.89 inHg , 1012.2 hPa
Clouds: Clear
Visibility: 10 miles , 16 km
2021/01/22 06:55 KSYM 220655Z AUTO 24007G13KT 10SM CLR 03/00 A2989 RMK AO2
 
KJKL - Noctor/Jackson, Kentucky, USA
Distance from station: ESE 36mi, 58km
Updated: Fri, 22-Jan-2021 1:53am EST
Clear
Clear
 Wind from SW
Wind: SW 6 mph , 9 km/h
Temperature: 36°F , 2°C
Wind Chill: 31°F , -1°C
Dew Point: 32°F , 0°C
Humidity: 87%
Barometer: 29.89 inHg , 1012.2 hPa
Clouds: Clear
Visibility: 8 miles , 13 km
2021/01/22 06:53 KJKL 220653Z AUTO 23005KT 8SM CLR 02/00 A2989 RMK AO2 SLP127 T00220000
KLEX - Lexington, Kentucky, USA
Distance from station: WNW 40mi, 65km
Updated: Fri, 22-Jan-2021 1:54am EST
Mist, Clear
Mist, Clear
 Wind from SW
Wind: SW 8 mph , 13 km/h
Temperature: 34°F , 1°C
Wind Chill: 27°F , -3°C
Dew Point: 30°F , -1°C
Humidity: 87%
Barometer: 29.89 inHg , 1012.2 hPa
Summary: Mist
Clouds: Clear
Visibility: 5 miles , 8 km
2021/01/22 06:54 KLEX 220654Z 22007KT 5SM BR CLR 01/M01 A2989 RMK AO2 SLP128 T00061006
 
KFGX - Flemingsburg, Kentucky, USA
Distance from station: N 49mi, 79km
Updated: Fri, 22-Jan-2021 1:55am EST
Clear
Clear
 Wind from W
Wind: W 10 mph , 17 km/h
Temperature: 36°F , 2°C
Wind Chill: 29°F , -2°C
Dew Point: 32°F , 0°C
Humidity: 87%
Barometer: 29.87 inHg , 1011.5 hPa
Clouds: Clear
Visibility: 10 miles , 16 km
2021/01/22 06:55 KFGX 220655Z AUTO 27009KT 10SM CLR 02/00 A2987 RMK AO2 T00150000